Details From KSAN - San Diego Intl
To YBMA - Mount Isa
Flight Number -
Tags Decoded
Created
Modified
Stats Distance 6,869 nm / 12,721 km
Max Altitude 0 ft / 0 m
Waypoints 7
Social Downloads 0
Likes 0
Share VATSIM

Download

Looking for another format? Having issues loading an existing format? Contact us
Advertisement - Login to hide

Notes

Decoded

Route

KSAN FIZEL KUMME CANNS BOILS NIPOK YBMA

ID Type Via Altitude Latitude Longitude Leg Dist Tot Dist Heading (true) Name
O KSAN APT - 0 ft / 0 m 32.73712˚ -117.20435˚ - 0 nm - -
FIZEL FIX - 0 ft / 0 m 26.99500˚ -138.20500˚ 1144 nm 1144 nm 258° / 247° -
KUMME FIX - 0 ft / 0 m 19.28108˚ -152.22653˚ 901 nm 2045 nm 242° / 236° -
CANNS FIX - 0 ft / 0 m 9.18333˚ -165.86667˚ 998 nm 3043 nm 234° / 231° -
BOILS FIX - 0 ft / 0 m -5.00000˚ -179.84667˚ 1194 nm 4238 nm 225° / 225° -
NIPOK FIX - 0 ft / 0 m -9.92833˚ 155.00000˚ 1526 nm 5764 nm 257° / 261° -
O YBMA APT - 0 ft / 0 m -20.65894˚ 139.48442˚ 1104 nm 6868 nm 232° / 237° -

Altitude Profile

Advertisement - Login to hide

Weather


0- 5 10 15 20 25 30 35+ Temperature / ° C

Clouds and Precipitation
Forecast for 2018-05-24 18:00 UTC. Updated 5 hours ago

Ground ~20,000 ft ~40,000 ft Winds

KSAN

Details ICAO KSAN (SAN)
Name San Diego Intl
Region United States
Timezone America/Los_Angeles (UTC-7.0)
Stats Elevation 17 ft / 5 m (AMSL)
Location 32.733556° -117.189658°
Runways 1
Magnetic Variation 11.487° E

METAR

KSAN 242151Z 29010G15KT 10SM SCT023 OVC032 19/12 A3011 RMK AO2 SLP195 T01890117

Decode

TAF

TAF AMD KSAN 242046Z 2421/2524 33007KT P6SM BKN025 FM250300 29005KT P6SM OVC017 FM251500 VRB03KT P6SM BKN022 FM251700 29008KT P6SM SCT025 FM252000 29013G19KT P6SM SCT025

Decode

Departure Runways

ID Width Length Bearing (true) Bearing (mag) Surface Threshold Offset Overrun Length
09 200 ft / 61 m 9,387 ft / 2,861 m 106.07° 94.58° Asphalt 699 ft / 213 m 269 ft / 82 m
27 200 ft / 61 m 9,387 ft / 2,861 m 286.08° 274.59° Asphalt 1,811 ft / 552 m 0 ft / 0 m

YBMA

Details ICAO YBMA (ISA)
Name Mount Isa
Region Australia
Timezone Australia/Brisbane (UTC+10.0)
Stats Elevation 1,121 ft / 342 m (AMSL)
Location -20.666369° 139.488443°
Runways 1
Magnetic Variation 5.671° E

METAR

YBMA 242200Z AUTO 16005KT 9999 // NCD 15/06 Q1017

Decode

TAF

Not found

Destination Runways

ID Width Length Bearing (true) Bearing (mag) Surface Threshold Offset Overrun Length
16 148 ft / 45 m 8,859 ft / 2,700 m 167.80° 162.13° Asphalt 210 ft / 64 m 79 ft / 24 m
34 148 ft / 45 m 8,859 ft / 2,700 m 347.80° 342.13° Asphalt 213 ft / 65 m 49 ft / 15 m

Popular Alternatives